createdAt,value
2022-10-12T00:00:38.502Z,30.47
2022-10-12T00:03:06.243Z,16.75
2022-10-12T00:05:33.905Z,14.38
2022-10-12T00:08:03.722Z,12.77
2022-10-12T00:10:31.553Z,12.52
2022-10-12T00:13:00.029Z,16.13
2022-10-12T00:15:29.103Z,13.87
2022-10-12T00:17:56.845Z,12.30
2022-10-12T00:20:24.546Z,10.80
2022-10-12T00:22:52.627Z,12.93
2022-10-12T00:25:22.691Z,11.82
2022-10-12T00:27:50.402Z,8.55
2022-10-12T00:30:18.838Z,13.65
2022-10-12T00:32:48.025Z,12.68
2022-10-12T00:35:15.799Z,10.65
2022-10-12T00:37:43.541Z,12.70
2022-10-12T00:40:12.405Z,10.50
2022-10-12T00:42:42.395Z,11.23
2022-10-12T00:45:11.054Z,9.73
2022-10-12T00:47:41.734Z,10.52
2022-10-12T00:50:16.895Z,11.50
2022-10-12T00:52:50.740Z,13.73
2022-10-12T00:55:20.750Z,14.48
2022-10-12T00:57:50.766Z,17.15
2022-10-12T01:00:19.947Z,14.27
2022-10-12T01:02:49.843Z,14.93
2022-10-12T01:05:19.832Z,13.05
2022-10-12T01:07:47.853Z,10.13
2022-10-12T01:10:15.827Z,12.50
2022-10-12T01:12:45.368Z,9.43
2022-10-12T01:15:15.766Z,13.95
2022-10-12T01:17:55.161Z,12.20
2022-10-12T01:20:52.140Z,8.63
2022-10-12T01:23:48.180Z,9.38
2022-10-12T01:26:53.271Z,11.15
2022-10-12T01:29:38.364Z,12.20
2022-10-12T01:32:14.070Z,9.63
2022-10-12T01:34:45.928Z,8.63
2022-10-12T01:37:20.770Z,8.05
2022-10-12T01:39:54.419Z,9.85
2022-10-12T01:42:26.558Z,12.47
2022-10-12T01:45:02.597Z,8.93
2022-10-12T01:47:32.712Z,8.73
2022-10-12T01:50:02.235Z,11.93
2022-10-12T01:52:31.747Z,11.57
2022-10-12T01:55:11.188Z,12.67
2022-10-12T01:57:51.290Z,12.38
2022-10-12T02:00:19.346Z,9.45
2022-10-12T02:02:56.421Z,8.73
2022-10-12T02:05:32.025Z,13.02
2022-10-12T02:08:06.689Z,9.70
2022-10-12T02:10:37.935Z,7.88
2022-10-12T02:13:09.315Z,11.80
2022-10-12T02:15:40.338Z,14.48
2022-10-12T02:18:17.298Z,9.68
2022-10-12T02:20:47.747Z,9.52
2022-10-12T02:23:16.303Z,9.32
2022-10-12T02:25:44.156Z,12.50
2022-10-12T02:28:15.133Z,12.57
2022-10-12T02:30:48.700Z,10.80
2022-10-12T02:33:25.665Z,9.77
2022-10-12T02:35:59.607Z,14.15
2022-10-12T02:38:33.839Z,12.45
2022-10-12T02:41:05.885Z,8.13
2022-10-12T02:43:37.628Z,8.95
2022-10-12T02:46:08.529Z,9.63
2022-10-12T02:48:40.173Z,11.20
2022-10-12T02:51:10.214Z,11.02
2022-10-12T02:53:38.815Z,8.33
2022-10-12T02:56:11.154Z,11.70
2022-10-12T02:58:38.952Z,10.10
2022-10-12T03:01:06.727Z,8.63
2022-10-12T03:03:34.566Z,8.60
2022-10-12T03:06:03.684Z,10.27
2022-10-12T03:08:31.533Z,9.77
2022-10-12T03:11:02.391Z,12.87
2022-10-12T03:13:30.266Z,17.47
2022-10-12T03:16:03.446Z,12.20
2022-10-12T03:18:31.620Z,10.80
2022-10-12T03:20:59.603Z,13.93
2022-10-12T03:23:28.727Z,12.50
2022-10-12T03:25:56.550Z,13.05
2022-10-12T03:28:26.442Z,12.03
2022-10-12T03:30:54.227Z,12.50
2022-10-12T03:33:21.948Z,11.60
2022-10-12T03:35:52.031Z,11.88
2022-10-12T03:38:20.865Z,9.25
2022-10-12T03:40:50.095Z,14.65
2022-10-12T03:43:18.215Z,9.43
2022-10-12T03:45:45.917Z,10.02
2022-10-12T03:48:39.170Z,9.52
2022-10-12T03:51:07.305Z,9.10
2022-10-12T03:53:35.024Z,13.90
2022-10-12T03:56:02.796Z,12.50
2022-10-12T03:58:30.475Z,13.88
2022-10-12T04:00:58.173Z,14.27
2022-10-12T04:03:25.951Z,13.52
2022-10-12T04:05:55.876Z,12.02
2022-10-12T04:08:24.183Z,14.90
2022-10-12T04:10:51.866Z,12.75
2022-10-12T04:13:20.304Z,15.57
2022-10-12T04:15:48.068Z,12.55
2022-10-12T04:18:15.831Z,13.18
2022-10-12T04:20:43.551Z,13.43
2022-10-12T04:23:12.930Z,14.73
2022-10-12T04:25:40.819Z,15.03
2022-10-12T04:28:09.044Z,13.10
2022-10-12T04:30:36.825Z,12.57
2022-10-12T04:33:04.781Z,10.88
2022-10-12T04:35:32.959Z,12.32
2022-10-12T04:38:02.977Z,13.60
2022-10-12T04:40:32.032Z,11.07
2022-10-12T04:42:59.696Z,10.30
2022-10-12T04:45:27.363Z,16.40
2022-10-12T04:47:55.051Z,15.60
2022-10-12T04:50:26.310Z,15.00
2022-10-12T04:52:56.832Z,13.70
2022-10-12T04:55:24.576Z,15.32
2022-10-12T04:57:53.944Z,15.07
2022-10-12T05:00:21.644Z,17.85
2022-10-12T05:02:49.393Z,11.15
2022-10-12T05:05:17.240Z,12.45
2022-10-12T05:07:44.935Z,14.00
2022-10-12T05:10:12.619Z,18.25
2022-10-12T05:12:40.625Z,14.48
2022-10-12T05:15:11.068Z,13.73
2022-10-12T05:17:39.281Z,10.38
2022-10-12T05:20:08.755Z,11.75
2022-10-12T05:22:36.491Z,9.07
2022-10-12T05:25:04.822Z,11.60
2022-10-12T05:27:32.473Z,9.18
2022-10-12T05:30:00.294Z,10.20
2022-10-12T05:32:29.313Z,10.57
2022-10-12T05:34:59.266Z,12.30
2022-10-12T05:37:27.269Z,13.77
2022-10-12T05:39:54.933Z,14.13
2022-10-12T05:42:22.630Z,11.57
2022-10-12T05:44:50.362Z,13.50
2022-10-12T05:47:18.068Z,15.13
2022-10-12T05:49:47.106Z,17.45
2022-10-12T05:52:14.943Z,16.67
2022-10-12T05:54:42.675Z,13.38
2022-10-12T05:57:10.436Z,16.13
2022-10-12T05:59:38.133Z,15.63
2022-10-12T06:02:05.917Z,17.00
2022-10-12T06:04:33.729Z,14.48
2022-10-12T06:07:02.802Z,18.13
2022-10-12T06:09:30.543Z,19.57
2022-10-12T06:11:58.230Z,16.63
2022-10-12T06:14:26.020Z,15.73
2022-10-12T06:16:54.582Z,13.48
2022-10-12T06:19:22.692Z,12.70
2022-10-12T06:21:50.425Z,18.73
2022-10-12T06:24:19.483Z,17.73
2022-10-12T06:26:49.618Z,17.80
2022-10-12T06:29:17.608Z,20.45
2022-10-12T06:31:51.200Z,20.42
2022-10-12T06:34:19.623Z,18.10
2022-10-12T06:36:47.425Z,13.98
2022-10-12T06:39:15.376Z,15.13
2022-10-12T06:41:44.468Z,15.55
2022-10-12T06:44:12.158Z,13.75
2022-10-12T06:46:39.944Z,14.87
2022-10-12T06:49:07.748Z,27.40
2022-10-12T06:51:35.481Z,23.85
2022-10-12T06:54:03.173Z,21.67
2022-10-12T06:56:31.309Z,13.10
2022-10-12T06:59:00.344Z,15.80
2022-10-12T07:01:28.174Z,18.47
2022-10-12T07:04:00.388Z,19.60
2022-10-12T07:06:28.954Z,14.00
2022-10-12T07:08:59.090Z,13.00
2022-10-12T07:11:26.988Z,15.52
2022-10-12T07:13:54.643Z,15.38
2022-10-12T07:16:23.711Z,14.67
2022-10-12T07:18:51.408Z,15.87
2022-10-12T07:21:19.131Z,11.95
2022-10-12T07:23:46.857Z,19.83
2022-10-12T07:26:14.618Z,16.27
2022-10-12T07:28:44.505Z,15.85
2022-10-12T07:31:12.743Z,15.90
2022-10-12T07:33:42.102Z,16.73
2022-10-12T07:36:14.232Z,16.53
2022-10-12T07:38:45.897Z,15.40
2022-10-12T07:41:22.766Z,19.83
2022-10-12T07:43:55.448Z,19.67
2022-10-12T07:46:23.192Z,17.83
2022-10-12T07:48:52.302Z,15.32
2022-10-12T07:51:20.498Z,16.42
2022-10-12T07:53:48.371Z,18.02
2022-10-12T07:56:16.204Z,20.55
2022-10-12T07:58:44.524Z,15.27
2022-10-12T08:01:12.635Z,18.58
2022-10-12T08:03:42.907Z,24.75
2022-10-12T08:06:14.023Z,21.73
2022-10-12T08:08:42.111Z,21.40
2022-10-12T08:11:09.819Z,19.07
2022-10-12T08:13:38.004Z,22.92
2022-10-12T08:16:09.271Z,16.92
2022-10-12T08:18:37.118Z,19.87
2022-10-12T08:21:05.650Z,20.60
2022-10-12T08:23:35.348Z,18.38
2022-10-12T08:26:03.343Z,17.38
2022-10-12T08:28:31.311Z,27.83
2022-10-12T08:30:59.723Z,17.00
2022-10-12T08:33:30.315Z,20.10
2022-10-12T08:35:58.027Z,20.30
2022-10-12T08:38:25.761Z,22.65
2022-10-12T08:41:00.115Z,19.92
2022-10-12T08:43:42.578Z,18.63
2022-10-12T08:46:10.614Z,18.20
2022-10-12T08:48:47.131Z,17.13
2022-10-12T08:51:22.030Z,20.55
2022-10-12T08:53:55.625Z,21.60
2022-10-12T08:56:24.711Z,19.00
2022-10-12T08:58:53.899Z,20.13
2022-10-12T09:01:29.082Z,21.20
2022-10-12T09:04:22.879Z,22.25
2022-10-12T09:07:00.032Z,21.77
2022-10-12T09:09:43.944Z,22.45
2022-10-12T09:12:25.838Z,20.70
2022-10-12T09:15:00.410Z,18.83
2022-10-12T09:17:32.855Z,20.30
2022-10-12T09:20:05.323Z,20.75
2022-10-12T09:22:35.399Z,21.57
2022-10-12T09:25:04.219Z,25.17
2022-10-12T09:27:33.272Z,18.65
2022-10-12T09:30:03.644Z,21.15
2022-10-12T09:32:49.756Z,21.85
2022-10-12T09:35:18.058Z,18.65
2022-10-12T09:37:51.004Z,18.57
2022-10-12T09:40:28.624Z,19.23
2022-10-12T09:43:01.662Z,23.63
2022-10-12T09:45:32.272Z,20.55
2022-10-12T09:48:15.179Z,18.77
2022-10-12T09:50:46.448Z,24.47
2022-10-12T09:53:25.000Z,21.60
2022-10-12T09:55:55.358Z,18.60
2022-10-12T09:58:26.350Z,21.20
2022-10-12T10:01:18.974Z,19.05
2022-10-12T10:03:48.396Z,21.63
2022-10-12T10:06:16.420Z,17.10
2022-10-12T10:08:45.979Z,18.90
2022-10-12T10:11:19.884Z,17.63
2022-10-12T10:13:53.117Z,18.98
2022-10-12T10:16:24.578Z,14.40
2022-10-12T10:18:59.515Z,15.43
2022-10-12T10:21:30.940Z,16.17
2022-10-12T10:24:00.639Z,16.85
2022-10-12T10:26:31.539Z,15.05
2022-10-12T10:29:24.706Z,16.00
2022-10-12T10:32:11.841Z,13.40
2022-10-12T10:34:41.902Z,16.03
2022-10-12T10:37:18.166Z,15.73
2022-10-12T10:39:49.016Z,13.48
2022-10-12T10:42:22.022Z,15.63
2022-10-12T10:44:53.570Z,12.93
2022-10-12T10:47:21.425Z,15.20
2022-10-12T10:49:52.312Z,12.95
2022-10-12T10:52:23.514Z,16.17
2022-10-12T10:55:11.955Z,12.98
2022-10-12T10:57:43.801Z,12.38
2022-10-12T11:03:12.084Z,13.27
2022-10-12T11:05:45.810Z,15.60
2022-10-12T11:08:18.189Z,14.57
2022-10-12T11:10:51.176Z,13.05
2022-10-12T11:13:23.521Z,10.38
2022-10-12T11:15:56.962Z,11.13
2022-10-12T11:18:33.480Z,12.48
2022-10-12T11:21:05.164Z,13.45
2022-10-12T11:23:42.374Z,11.70
2022-10-12T11:26:21.599Z,12.38
2022-10-12T11:28:49.780Z,12.88
2022-10-12T11:31:24.918Z,12.43
2022-10-12T11:33:55.262Z,14.00
2022-10-12T11:36:26.794Z,13.25
2022-10-12T11:38:59.422Z,13.13
2022-10-12T11:41:44.992Z,12.73
2022-10-12T11:44:30.710Z,10.65
2022-10-12T11:47:04.107Z,11.30
2022-10-12T11:49:35.660Z,10.55
2022-10-12T11:52:10.847Z,9.90
2022-10-12T11:54:42.902Z,10.10
2022-10-12T11:57:15.081Z,11.90
2022-10-12T11:59:45.998Z,11.68
2022-10-12T12:02:22.903Z,10.27
2022-10-12T12:04:51.729Z,12.02
2022-10-12T12:07:43.854Z,10.10
2022-10-12T12:11:00.311Z,11.38
2022-10-12T12:13:28.536Z,9.38
2022-10-12T12:16:30.530Z,9.45
2022-10-12T12:19:18.879Z,10.50
2022-10-12T12:22:26.494Z,12.90
2022-10-12T12:25:04.112Z,10.73
2022-10-12T12:27:36.039Z,11.93
2022-10-12T12:30:20.967Z,10.47
2022-10-12T12:32:51.582Z,10.88
2022-10-12T12:35:27.902Z,10.70
2022-10-12T12:38:18.363Z,10.43
2022-10-12T12:41:01.798Z,9.80
2022-10-12T12:44:02.271Z,9.05
2022-10-12T12:50:00.776Z,10.60
2022-10-12T12:52:33.979Z,10.52
2022-10-12T12:55:20.390Z,9.50
2022-10-12T12:58:03.492Z,11.90
2022-10-12T13:00:38.187Z,11.13
2022-10-12T13:03:46.280Z,11.15
2022-10-12T13:07:04.963Z,11.00
2022-10-12T13:09:57.981Z,11.93
2022-10-12T13:12:54.813Z,10.75
2022-10-12T13:15:35.218Z,11.90
2022-10-12T13:18:47.368Z,10.27
2022-10-12T13:21:19.827Z,10.40
2022-10-12T13:23:50.082Z,10.68
2022-10-12T13:26:24.993Z,10.60
2022-10-12T13:28:54.976Z,11.17
2022-10-12T13:31:27.754Z,11.13
2022-10-12T13:34:04.416Z,12.65
2022-10-12T13:36:36.056Z,8.15
2022-10-12T13:39:15.215Z,8.80
2022-10-12T13:41:45.759Z,8.73
2022-10-12T13:44:22.664Z,7.30
2022-10-12T13:46:52.079Z,8.97
2022-10-12T13:49:25.003Z,8.45
2022-10-12T13:51:55.161Z,6.82
2022-10-12T13:54:24.762Z,8.50
2022-10-12T13:56:58.618Z,8.20
2022-10-12T13:59:29.584Z,9.25
2022-10-12T14:02:00.620Z,8.70
2022-10-12T14:04:30.477Z,7.63
2022-10-12T14:07:02.095Z,7.80
2022-10-12T14:09:37.405Z,6.95
2022-10-12T14:12:09.427Z,9.65
2022-10-12T14:14:39.865Z,7.47
2022-10-12T14:17:08.239Z,7.45
2022-10-12T14:19:44.952Z,8.10
2022-10-12T14:22:13.814Z,7.55
2022-10-12T14:24:41.613Z,9.60
2022-10-12T14:27:23.215Z,8.20
2022-10-12T14:29:54.141Z,7.18
2022-10-12T14:32:44.055Z,9.97
2022-10-12T14:35:20.530Z,6.55
2022-10-12T14:37:49.495Z,7.80
2022-10-12T14:40:37.097Z,9.23
2022-10-12T14:43:09.440Z,9.20
2022-10-12T14:45:37.485Z,8.10
2022-10-12T14:48:07.084Z,6.57
2022-10-12T14:50:34.866Z,7.70
2022-10-12T14:53:10.806Z,7.03
2022-10-12T14:55:38.653Z,5.97
2022-10-12T14:58:15.441Z,7.25
2022-10-12T15:00:44.008Z,7.27
2022-10-12T15:03:11.985Z,6.80
2022-10-12T15:05:42.032Z,5.93
2022-10-12T15:08:10.514Z,5.13
2022-10-12T15:10:38.677Z,5.67
2022-10-12T15:13:06.558Z,9.47
2022-10-12T15:15:42.248Z,9.93
2022-10-12T15:18:10.297Z,6.30
2022-10-12T15:20:39.184Z,9.17
2022-10-12T15:23:07.471Z,5.75
2022-10-12T15:25:43.658Z,6.32
2022-10-12T15:28:11.470Z,7.53
2022-10-12T15:31:04.119Z,7.55
2022-10-12T15:33:28.788Z,7.43
2022-10-12T15:35:57.143Z,5.43
2022-10-12T15:38:24.946Z,6.57
2022-10-12T15:40:53.505Z,5.72
2022-10-12T15:43:21.296Z,5.05
2022-10-12T15:45:50.652Z,5.70
2022-10-12T15:48:20.482Z,6.77
2022-10-12T15:50:50.272Z,6.63
2022-10-12T15:53:22.023Z,6.65
2022-10-12T15:55:49.727Z,7.07
2022-10-12T15:58:19.524Z,10.05
2022-10-12T16:00:47.570Z,7.25
2022-10-12T16:03:24.604Z,5.80
2022-10-12T16:05:53.612Z,6.03
2022-10-12T16:08:24.194Z,4.38
2022-10-12T16:10:52.345Z,5.68
2022-10-12T16:13:20.379Z,7.13
2022-10-12T16:15:48.050Z,8.50
2022-10-12T16:18:19.180Z,11.83
2022-10-12T16:20:52.674Z,9.90
2022-10-12T16:23:24.115Z,9.70
2022-10-12T16:25:52.162Z,10.25
2022-10-12T16:28:19.951Z,11.38
2022-10-12T16:30:49.004Z,8.67
2022-10-12T16:33:16.803Z,7.32
2022-10-12T16:35:46.142Z,10.98
2022-10-12T16:38:14.762Z,10.60
2022-10-12T16:40:43.300Z,9.20
2022-10-12T16:43:11.527Z,8.68
2022-10-12T16:45:41.405Z,8.77
2022-10-12T16:48:09.208Z,9.18
2022-10-12T16:50:40.795Z,13.07
2022-10-12T16:53:10.108Z,12.02
2022-10-12T16:55:39.875Z,9.82
2022-10-12T16:58:07.718Z,12.48
2022-10-12T17:00:35.620Z,12.27
2022-10-12T17:03:03.355Z,12.18
2022-10-12T17:05:31.065Z,12.43
2022-10-12T17:08:00.048Z,16.10
2022-10-12T17:10:29.245Z,12.68
2022-10-12T17:12:56.938Z,8.27
2022-10-12T17:15:24.714Z,7.85
2022-10-12T17:17:53.959Z,5.70
2022-10-12T17:20:23.842Z,6.68
2022-10-12T17:22:51.967Z,6.43
2022-10-12T17:25:19.653Z,8.00
2022-10-12T17:27:48.798Z,10.75
2022-10-12T17:30:16.713Z,8.05
2022-10-12T17:32:44.518Z,12.18
2022-10-12T17:35:12.265Z,13.40
2022-10-12T17:37:42.081Z,12.43
2022-10-12T17:40:11.604Z,13.50
2022-10-12T17:42:39.451Z,11.32
2022-10-12T17:45:09.516Z,12.50
2022-10-12T17:47:39.532Z,12.13
2022-10-12T17:50:08.390Z,9.40
2022-10-12T17:52:39.469Z,10.40
2022-10-12T17:55:19.250Z,9.07
2022-10-12T17:57:55.693Z,12.07
2022-10-12T18:00:25.010Z,12.45
2022-10-12T18:02:52.780Z,12.57
2022-10-12T18:05:20.795Z,14.87
2022-10-12T18:07:48.513Z,9.63
2022-10-12T18:10:16.474Z,8.07
2022-10-12T18:12:45.097Z,10.02
2022-10-12T18:15:12.813Z,12.07
2022-10-12T18:17:41.848Z,13.80
2022-10-12T18:20:12.952Z,18.23
2022-10-12T18:22:40.688Z,12.75
2022-10-12T18:25:09.167Z,13.23
2022-10-12T18:27:36.861Z,15.45
2022-10-12T18:30:06.087Z,13.73
2022-10-12T18:32:34.272Z,12.63
2022-10-12T18:35:03.517Z,11.77
2022-10-12T18:37:31.262Z,10.80
2022-10-12T18:40:01.072Z,11.68
2022-10-12T18:42:28.785Z,11.77
2022-10-12T18:44:56.769Z,10.93
2022-10-12T18:47:24.701Z,8.25
2022-10-12T18:49:52.495Z,11.82
2022-10-12T18:52:21.569Z,8.02
2022-10-12T18:54:51.097Z,10.20
2022-10-12T18:57:18.820Z,12.50
2022-10-12T18:59:46.538Z,8.32
2022-10-12T19:02:17.284Z,8.10
2022-10-12T19:04:45.263Z,11.98
2022-10-12T19:07:13.125Z,10.35
2022-10-12T19:09:42.178Z,9.95
2022-10-12T19:12:09.941Z,9.98
2022-10-12T19:14:38.058Z,12.67
2022-10-12T19:17:05.781Z,11.20
2022-10-12T19:19:33.468Z,9.80
2022-10-12T19:22:01.207Z,13.15
2022-10-12T19:24:28.947Z,10.90
2022-10-12T19:26:57.953Z,13.63
2022-10-12T19:29:25.698Z,14.68
2022-10-12T19:31:55.557Z,10.23
2022-10-12T19:34:23.736Z,14.20
2022-10-12T19:36:51.964Z,14.07
2022-10-12T19:39:21.591Z,14.65
2022-10-12T19:41:50.164Z,16.57
2022-10-12T19:44:20.290Z,11.20
2022-10-12T19:46:49.126Z,14.85
2022-10-12T19:49:18.961Z,14.30
2022-10-12T19:51:47.474Z,11.00
2022-10-12T19:54:18.102Z,8.43
2022-10-12T19:56:46.224Z,7.30
2022-10-12T19:59:14.583Z,10.65
2022-10-12T20:01:47.731Z,14.23
2022-10-12T20:04:15.955Z,9.05
2022-10-12T20:06:43.904Z,10.38
2022-10-12T20:09:11.791Z,14.60
2022-10-12T20:11:39.755Z,10.52
2022-10-12T20:14:07.801Z,11.43
2022-10-12T20:16:36.020Z,9.82
2022-10-12T20:19:06.479Z,12.27
2022-10-12T20:21:36.306Z,12.45
2022-10-12T20:24:04.321Z,8.73
2022-10-12T20:26:32.299Z,12.53
2022-10-12T20:29:01.598Z,8.15
2022-10-12T20:31:29.519Z,10.52
2022-10-12T20:33:58.675Z,8.23
2022-10-12T20:36:31.882Z,9.52
2022-10-12T20:39:00.555Z,12.82
2022-10-12T20:41:30.755Z,9.70
2022-10-12T20:44:00.271Z,12.02
2022-10-12T20:46:29.174Z,11.85
2022-10-12T20:48:58.909Z,14.93
2022-10-12T20:51:28.887Z,14.35
2022-10-12T20:54:00.736Z,14.73
2022-10-12T20:56:29.143Z,13.80
2022-10-12T20:58:59.858Z,11.52
2022-10-12T21:01:28.294Z,12.45
2022-10-12T21:03:56.527Z,10.65
2022-10-12T21:06:25.003Z,16.10
2022-10-12T21:08:54.666Z,21.63
2022-10-12T21:11:24.437Z,21.47
2022-10-12T21:13:52.304Z,20.13
2022-10-12T21:16:20.363Z,21.10
2022-10-12T21:18:48.067Z,15.48
2022-10-12T21:21:17.330Z,17.83
2022-10-12T21:23:46.368Z,20.70
2022-10-12T21:26:16.275Z,16.08
2022-10-12T21:28:46.031Z,11.35
2022-10-12T21:31:14.812Z,20.58
2022-10-12T21:33:43.025Z,19.77
2022-10-12T21:36:12.834Z,20.20
2022-10-12T21:38:41.030Z,15.60
2022-10-12T21:41:12.769Z,18.33
2022-10-12T21:43:41.665Z,14.43
2022-10-12T21:46:13.167Z,16.85
2022-10-12T21:48:41.635Z,14.40
2022-10-12T21:51:09.941Z,12.23
2022-10-12T21:53:41.027Z,16.25
2022-10-12T21:56:09.984Z,11.75
2022-10-12T21:58:37.701Z,10.73
2022-10-12T22:01:09.155Z,16.15
2022-10-12T22:03:38.389Z,15.60
2022-10-12T22:06:06.163Z,12.40
2022-10-12T22:08:34.242Z,18.75
2022-10-12T22:11:06.361Z,21.60
2022-10-12T22:13:34.590Z,13.80
2022-10-12T22:16:03.234Z,13.40
2022-10-12T22:18:33.794Z,12.40
2022-10-12T22:21:07.314Z,15.83
2022-10-12T22:23:35.773Z,12.50
2022-10-12T22:26:06.289Z,18.10
2022-10-12T22:28:34.720Z,17.35
2022-10-12T22:31:06.987Z,19.23
2022-10-12T22:33:35.236Z,17.37
2022-10-12T22:36:05.414Z,21.90
2022-10-12T22:38:34.491Z,21.60
2022-10-12T22:41:04.695Z,16.58
2022-10-12T22:43:33.455Z,20.45
2022-10-12T22:46:02.196Z,16.10
2022-10-12T22:48:30.409Z,15.63
2022-10-12T22:50:58.387Z,11.88
2022-10-12T22:53:29.278Z,13.73
2022-10-12T22:56:00.496Z,16.35
2022-10-12T22:58:28.394Z,17.45
2022-10-12T23:01:02.650Z,10.27
2022-10-12T23:03:33.497Z,10.55
2022-10-12T23:06:04.227Z,12.75
2022-10-12T23:08:35.929Z,11.77
2022-10-12T23:11:05.710Z,14.48
2022-10-12T23:13:35.458Z,14.05
2022-10-12T23:16:04.090Z,15.80
2022-10-12T23:18:33.243Z,15.60
2022-10-12T23:21:01.407Z,10.90
2022-10-12T23:23:29.133Z,12.85
2022-10-12T23:26:02.205Z,12.73
2022-10-12T23:28:30.185Z,14.48
2022-10-12T23:30:57.933Z,20.02
2022-10-12T23:33:27.965Z,18.52
2022-10-12T23:35:57.370Z,13.97
2022-10-12T23:38:25.542Z,10.57
2022-10-12T23:40:53.455Z,10.60
2022-10-12T23:43:22.847Z,11.55
2022-10-12T23:45:54.174Z,11.70
2022-10-12T23:48:22.275Z,9.93
2022-10-12T23:50:52.783Z,9.73
2022-10-12T23:53:21.310Z,11.10
2022-10-12T23:55:49.132Z,12.57
2022-10-12T23:58:17.217Z,13.40
